sensor_id;sensor_type;location;lat;lon;timestamp;P1;durP1;ratioP1;P2;durP2;ratioP2
75885;SDS011;64561;44.018;10.144;2023-02-26T00:01:20;15.35;;;7.80;;
75885;SDS011;64561;44.018;10.144;2023-02-26T00:03:56;21.63;;;8.13;;
75885;SDS011;64561;44.018;10.144;2023-02-26T00:06:26;15.82;;;7.68;;
75885;SDS011;64561;44.018;10.144;2023-02-26T00:08:54;14.88;;;6.78;;
75885;SDS011;64561;44.018;10.144;2023-02-26T00:11:21;14.88;;;8.85;;
75885;SDS011;64561;44.018;10.144;2023-02-26T00:13:49;15.57;;;8.27;;
75885;SDS011;64561;44.018;10.144;2023-02-26T00:18:52;17.98;;;9.63;;
75885;SDS011;64561;44.018;10.144;2023-02-26T00:21:21;18.17;;;10.00;;
75885;SDS011;64561;44.018;10.144;2023-02-26T00:23:49;14.45;;;9.30;;
75885;SDS011;64561;44.018;10.144;2023-02-26T00:26:16;12.57;;;8.05;;
75885;SDS011;64561;44.018;10.144;2023-02-26T00:28:43;13.20;;;8.07;;
75885;SDS011;64561;44.018;10.144;2023-02-26T00:31:10;14.68;;;9.02;;
75885;SDS011;64561;44.018;10.144;2023-02-26T00:33:40;15.95;;;9.70;;
75885;SDS011;64561;44.018;10.144;2023-02-26T00:42:21;18.17;;;10.27;;
75885;SDS011;64561;44.018;10.144;2023-02-26T00:44:48;18.20;;;10.25;;
75885;SDS011;64561;44.018;10.144;2023-02-26T00:55:22;13.00;;;7.50;;
75885;SDS011;64561;44.018;10.144;2023-02-26T00:57:49;14.02;;;6.47;;
75885;SDS011;64561;44.018;10.144;2023-02-26T01:00:16;11.98;;;6.70;;
75885;SDS011;64561;44.018;10.144;2023-02-26T01:02:44;12.02;;;7.88;;
75885;SDS011;64561;44.018;10.144;2023-02-26T01:05:11;13.50;;;7.40;;
75885;SDS011;64561;44.018;10.144;2023-02-26T01:10:31;18.20;;;11.18;;
75885;SDS011;64561;44.018;10.144;2023-02-26T01:12:58;22.00;;;9.55;;
75885;SDS011;64561;44.018;10.144;2023-02-26T01:15:26;17.85;;;9.30;;
75885;SDS011;64561;44.018;10.144;2023-02-26T01:20:48;18.70;;;9.68;;
75885;SDS011;64561;44.018;10.144;2023-02-26T01:23:21;14.82;;;9.05;;
75885;SDS011;64561;44.018;10.144;2023-02-26T01:28:23;12.30;;;7.25;;
75885;SDS011;64561;44.018;10.144;2023-02-26T01:30:52;14.43;;;7.85;;
75885;SDS011;64561;44.018;10.144;2023-02-26T01:36:00;16.13;;;7.90;;
75885;SDS011;64561;44.018;10.144;2023-02-26T01:41:42;12.82;;;7.43;;
75885;SDS011;64561;44.018;10.144;2023-02-26T01:49:21;14.00;;;8.48;;
75885;SDS011;64561;44.018;10.144;2023-02-26T01:51:56;12.70;;;7.25;;
75885;SDS011;64561;44.018;10.144;2023-02-26T01:54:43;12.25;;;7.03;;
75885;SDS011;64561;44.018;10.144;2023-02-26T01:57:11;14.23;;;7.38;;
75885;SDS011;64561;44.018;10.144;2023-02-26T01:59:44;13.25;;;7.18;;
75885;SDS011;64561;44.018;10.144;2023-02-26T02:02:15;11.38;;;5.95;;
75885;SDS011;64561;44.018;10.144;2023-02-26T02:04:45;15.30;;;7.25;;
75885;SDS011;64561;44.018;10.144;2023-02-26T02:07:13;11.93;;;6.93;;
75885;SDS011;64561;44.018;10.144;2023-02-26T02:09:41;10.13;;;5.95;;
75885;SDS011;64561;44.018;10.144;2023-02-26T02:12:25;12.73;;;6.72;;
75885;SDS011;64561;44.018;10.144;2023-02-26T02:15:20;11.05;;;6.32;;
75885;SDS011;64561;44.018;10.144;2023-02-26T02:20:35;10.27;;;6.38;;
75885;SDS011;64561;44.018;10.144;2023-02-26T02:23:14;14.27;;;6.22;;
75885;SDS011;64561;44.018;10.144;2023-02-26T02:28:30;11.15;;;5.15;;
75885;SDS011;64561;44.018;10.144;2023-02-26T02:33:46;8.65;;;4.70;;
75885;SDS011;64561;44.018;10.144;2023-02-26T02:36:37;9.15;;;4.78;;
75885;SDS011;64561;44.018;10.144;2023-02-26T02:39:12;7.40;;;4.50;;
75885;SDS011;64561;44.018;10.144;2023-02-26T02:41:46;9.07;;;4.97;;
75885;SDS011;64561;44.018;10.144;2023-02-26T02:44:19;10.30;;;5.82;;
75885;SDS011;64561;44.018;10.144;2023-02-26T02:46:51;14.20;;;6.38;;
75885;SDS011;64561;44.018;10.144;2023-02-26T02:51:50;12.02;;;6.57;;
75885;SDS011;64561;44.018;10.144;2023-02-26T02:54:32;11.65;;;5.20;;
75885;SDS011;64561;44.018;10.144;2023-02-26T02:57:07;9.77;;;4.68;;
75885;SDS011;64561;44.018;10.144;2023-02-26T02:59:40;11.88;;;5.30;;
75885;SDS011;64561;44.018;10.144;2023-02-26T03:04:39;7.95;;;4.60;;
75885;SDS011;64561;44.018;10.144;2023-02-26T03:07:07;8.82;;;4.45;;
75885;SDS011;64561;44.018;10.144;2023-02-26T03:09:34;9.32;;;5.00;;
75885;SDS011;64561;44.018;10.144;2023-02-26T03:12:01;8.05;;;4.18;;
75885;SDS011;64561;44.018;10.144;2023-02-26T03:14:29;9.13;;;4.90;;
75885;SDS011;64561;44.018;10.144;2023-02-26T03:24:50;10.38;;;4.80;;
75885;SDS011;64561;44.018;10.144;2023-02-26T03:37:57;9.88;;;4.50;;
75885;SDS011;64561;44.018;10.144;2023-02-26T03:40:28;7.13;;;3.90;;
75885;SDS011;64561;44.018;10.144;2023-02-26T03:43:12;9.80;;;4.35;;
75885;SDS011;64561;44.018;10.144;2023-02-26T03:45:46;14.90;;;6.30;;
75885;SDS011;64561;44.018;10.144;2023-02-26T03:48:17;11.32;;;5.20;;
75885;SDS011;64561;44.018;10.144;2023-02-26T03:50:52;9.30;;;5.13;;
75885;SDS011;64561;44.018;10.144;2023-02-26T03:53:50;8.85;;;4.85;;
75885;SDS011;64561;44.018;10.144;2023-02-26T03:59:07;11.23;;;4.82;;
75885;SDS011;64561;44.018;10.144;2023-02-26T04:04:16;9.70;;;5.05;;
75885;SDS011;64561;44.018;10.144;2023-02-26T04:06:49;16.02;;;5.95;;
75885;SDS011;64561;44.018;10.144;2023-02-26T04:09:19;13.10;;;4.75;;
75885;SDS011;64561;44.018;10.144;2023-02-26T04:11:47;8.60;;;4.07;;
75885;SDS011;64561;44.018;10.144;2023-02-26T04:14:15;9.95;;;4.95;;
75885;SDS011;64561;44.018;10.144;2023-02-26T04:16:43;9.57;;;4.63;;
75885;SDS011;64561;44.018;10.144;2023-02-26T04:19:10;9.07;;;4.45;;
75885;SDS011;64561;44.018;10.144;2023-02-26T04:21:38;8.90;;;4.30;;
75885;SDS011;64561;44.018;10.144;2023-02-26T04:24:06;11.63;;;4.40;;
75885;SDS011;64561;44.018;10.144;2023-02-26T04:26:34;8.10;;;4.57;;
75885;SDS011;64561;44.018;10.144;2023-02-26T04:29:01;9.10;;;5.55;;
75885;SDS011;64561;44.018;10.144;2023-02-26T04:31:29;18.08;;;10.75;;
75885;SDS011;64561;44.018;10.144;2023-02-26T04:33:55;12.57;;;7.95;;
75885;SDS011;64561;44.018;10.144;2023-02-26T04:36:22;9.45;;;5.80;;
75885;SDS011;64561;44.018;10.144;2023-02-26T04:38:49;10.43;;;5.03;;
75885;SDS011;64561;44.018;10.144;2023-02-26T04:41:17;11.45;;;6.55;;
75885;SDS011;64561;44.018;10.144;2023-02-26T04:43:46;10.23;;;4.22;;
75885;SDS011;64561;44.018;10.144;2023-02-26T04:46:20;8.68;;;4.97;;
75885;SDS011;64561;44.018;10.144;2023-02-26T04:48:47;8.73;;;4.45;;
75885;SDS011;64561;44.018;10.144;2023-02-26T04:51:14;10.23;;;5.20;;
75885;SDS011;64561;44.018;10.144;2023-02-26T04:53:42;10.45;;;4.97;;
75885;SDS011;64561;44.018;10.144;2023-02-26T04:56:08;9.88;;;4.45;;
75885;SDS011;64561;44.018;10.144;2023-02-26T04:58:35;9.63;;;4.88;;
75885;SDS011;64561;44.018;10.144;2023-02-26T05:01:07;9.65;;;5.47;;
75885;SDS011;64561;44.018;10.144;2023-02-26T05:03:34;14.98;;;7.50;;
75885;SDS011;64561;44.018;10.144;2023-02-26T05:06:01;13.55;;;7.15;;
75885;SDS011;64561;44.018;10.144;2023-02-26T05:08:28;16.63;;;9.45;;
75885;SDS011;64561;44.018;10.144;2023-02-26T05:10:54;10.57;;;6.55;;
75885;SDS011;64561;44.018;10.144;2023-02-26T05:13:21;8.80;;;5.70;;
75885;SDS011;64561;44.018;10.144;2023-02-26T05:15:48;8.18;;;5.28;;
75885;SDS011;64561;44.018;10.144;2023-02-26T05:18:15;9.57;;;5.60;;
75885;SDS011;64561;44.018;10.144;2023-02-26T05:20:42;10.60;;;5.70;;
75885;SDS011;64561;44.018;10.144;2023-02-26T05:23:09;10.50;;;5.65;;
75885;SDS011;64561;44.018;10.144;2023-02-26T05:25:37;12.73;;;5.78;;
75885;SDS011;64561;44.018;10.144;2023-02-26T05:28:04;11.05;;;5.93;;
75885;SDS011;64561;44.018;10.144;2023-02-26T05:30:34;9.65;;;5.15;;
75885;SDS011;64561;44.018;10.144;2023-02-26T05:33:01;8.73;;;5.43;;
75885;SDS011;64561;44.018;10.144;2023-02-26T05:35:31;9.40;;;4.97;;
75885;SDS011;64561;44.018;10.144;2023-02-26T05:37:58;12.55;;;5.85;;
75885;SDS011;64561;44.018;10.144;2023-02-26T05:40:25;10.98;;;5.43;;
75885;SDS011;64561;44.018;10.144;2023-02-26T05:42:52;14.77;;;7.22;;
75885;SDS011;64561;44.018;10.144;2023-02-26T05:45:19;11.35;;;6.25;;
75885;SDS011;64561;44.018;10.144;2023-02-26T05:47:45;12.18;;;5.90;;
75885;SDS011;64561;44.018;10.144;2023-02-26T05:50:12;7.95;;;5.03;;
75885;SDS011;64561;44.018;10.144;2023-02-26T05:52:39;12.30;;;6.55;;
75885;SDS011;64561;44.018;10.144;2023-02-26T05:55:06;12.88;;;7.22;;
75885;SDS011;64561;44.018;10.144;2023-02-26T05:57:33;13.98;;;6.35;;
75885;SDS011;64561;44.018;10.144;2023-02-26T06:00:00;11.38;;;6.20;;
75885;SDS011;64561;44.018;10.144;2023-02-26T06:02:37;12.98;;;6.30;;
75885;SDS011;64561;44.018;10.144;2023-02-26T06:05:05;13.88;;;6.45;;
75885;SDS011;64561;44.018;10.144;2023-02-26T06:07:32;11.88;;;6.03;;
75885;SDS011;64561;44.018;10.144;2023-02-26T06:09:59;8.88;;;5.28;;
75885;SDS011;64561;44.018;10.144;2023-02-26T06:12:26;10.63;;;5.82;;
75885;SDS011;64561;44.018;10.144;2023-02-26T06:14:53;13.18;;;6.43;;
75885;SDS011;64561;44.018;10.144;2023-02-26T06:17:20;12.70;;;6.00;;
75885;SDS011;64561;44.018;10.144;2023-02-26T06:19:47;9.18;;;5.38;;
75885;SDS011;64561;44.018;10.144;2023-02-26T06:22:14;9.05;;;5.55;;
75885;SDS011;64561;44.018;10.144;2023-02-26T06:24:40;9.60;;;4.97;;
75885;SDS011;64561;44.018;10.144;2023-02-26T06:27:07;9.63;;;5.07;;
75885;SDS011;64561;44.018;10.144;2023-02-26T06:29:34;8.10;;;4.22;;
75885;SDS011;64561;44.018;10.144;2023-02-26T06:32:03;6.47;;;3.03;;
75885;SDS011;64561;44.018;10.144;2023-02-26T06:34:31;7.35;;;3.03;;
75885;SDS011;64561;44.018;10.144;2023-02-26T06:36:59;5.30;;;3.17;;
75885;SDS011;64561;44.018;10.144;2023-02-26T06:39:26;8.10;;;3.80;;
75885;SDS011;64561;44.018;10.144;2023-02-26T06:41:53;6.78;;;4.05;;
75885;SDS011;64561;44.018;10.144;2023-02-26T06:44:20;11.38;;;4.15;;
75885;SDS011;64561;44.018;10.144;2023-02-26T06:46:49;9.45;;;4.32;;
75885;SDS011;64561;44.018;10.144;2023-02-26T06:49:16;8.65;;;4.45;;
75885;SDS011;64561;44.018;10.144;2023-02-26T06:51:42;10.52;;;4.82;;
75885;SDS011;64561;44.018;10.144;2023-02-26T06:54:09;9.07;;;4.45;;
75885;SDS011;64561;44.018;10.144;2023-02-26T06:56:36;7.18;;;4.15;;
75885;SDS011;64561;44.018;10.144;2023-02-26T06:59:03;7.25;;;3.83;;
75885;SDS011;64561;44.018;10.144;2023-02-26T07:01:30;8.38;;;3.42;;
75885;SDS011;64561;44.018;10.144;2023-02-26T07:03:57;7.10;;;3.60;;
75885;SDS011;64561;44.018;10.144;2023-02-26T07:06:24;12.70;;;5.40;;
75885;SDS011;64561;44.018;10.144;2023-02-26T07:08:53;7.50;;;4.45;;
75885;SDS011;64561;44.018;10.144;2023-02-26T07:11:21;8.23;;;4.97;;
75885;SDS011;64561;44.018;10.144;2023-02-26T07:13:48;9.90;;;5.18;;
75885;SDS011;64561;44.018;10.144;2023-02-26T07:16:16;8.43;;;5.00;;
75885;SDS011;64561;44.018;10.144;2023-02-26T07:18:43;8.57;;;5.15;;
75885;SDS011;64561;44.018;10.144;2023-02-26T07:21:10;7.38;;;5.07;;
75885;SDS011;64561;44.018;10.144;2023-02-26T07:23:37;7.35;;;4.30;;
75885;SDS011;64561;44.018;10.144;2023-02-26T07:26:04;10.15;;;6.15;;
75885;SDS011;64561;44.018;10.144;2023-02-26T07:28:31;10.02;;;6.25;;
75885;SDS011;64561;44.018;10.144;2023-02-26T07:30:58;10.55;;;7.60;;
75885;SDS011;64561;44.018;10.144;2023-02-26T07:33:25;11.63;;;5.88;;
75885;SDS011;64561;44.018;10.144;2023-02-26T07:35:53;8.25;;;5.65;;
75885;SDS011;64561;44.018;10.144;2023-02-26T07:38:20;6.07;;;3.95;;
75885;SDS011;64561;44.018;10.144;2023-02-26T07:40:53;8.30;;;3.92;;
75885;SDS011;64561;44.018;10.144;2023-02-26T07:43:21;6.38;;;4.18;;
75885;SDS011;64561;44.018;10.144;2023-02-26T07:45:49;6.72;;;5.20;;
75885;SDS011;64561;44.018;10.144;2023-02-26T07:48:17;6.78;;;5.13;;
75885;SDS011;64561;44.018;10.144;2023-02-26T07:50:44;7.30;;;4.95;;
75885;SDS011;64561;44.018;10.144;2023-02-26T07:53:11;8.48;;;5.10;;
75885;SDS011;64561;44.018;10.144;2023-02-26T07:55:37;6.40;;;4.75;;
75885;SDS011;64561;44.018;10.144;2023-02-26T07:58:04;6.00;;;4.75;;
75885;SDS011;64561;44.018;10.144;2023-02-26T08:00:31;8.70;;;5.78;;
75885;SDS011;64561;44.018;10.144;2023-02-26T08:02:58;5.57;;;2.45;;
75885;SDS011;64561;44.018;10.144;2023-02-26T08:05:28;4.15;;;1.67;;
75885;SDS011;64561;44.018;10.144;2023-02-26T08:07:55;3.90;;;2.70;;
75885;SDS011;64561;44.018;10.144;2023-02-26T08:10:22;5.32;;;2.88;;
75885;SDS011;64561;44.018;10.144;2023-02-26T08:12:49;6.05;;;1.90;;
75885;SDS011;64561;44.018;10.144;2023-02-26T08:15:16;5.82;;;2.90;;
75885;SDS011;64561;44.018;10.144;2023-02-26T08:17:43;7.28;;;4.20;;
75885;SDS011;64561;44.018;10.144;2023-02-26T08:20:11;8.10;;;4.65;;
75885;SDS011;64561;44.018;10.144;2023-02-26T08:22:40;4.72;;;2.40;;
75885;SDS011;64561;44.018;10.144;2023-02-26T08:25:07;2.78;;;1.73;;
75885;SDS011;64561;44.018;10.144;2023-02-26T08:27:36;1.92;;;1.40;;
75885;SDS011;64561;44.018;10.144;2023-02-26T08:30:04;3.45;;;1.88;;
75885;SDS011;64561;44.018;10.144;2023-02-26T08:32:32;4.68;;;2.17;;
75885;SDS011;64561;44.018;10.144;2023-02-26T08:35:00;4.05;;;2.40;;
75885;SDS011;64561;44.018;10.144;2023-02-26T08:37:27;5.47;;;3.00;;
75885;SDS011;64561;44.018;10.144;2023-02-26T08:39:54;4.90;;;3.22;;
75885;SDS011;64561;44.018;10.144;2023-02-26T08:42:21;5.40;;;3.50;;
75885;SDS011;64561;44.018;10.144;2023-02-26T08:44:48;4.75;;;4.22;;
75885;SDS011;64561;44.018;10.144;2023-02-26T08:47:15;6.50;;;3.67;;
75885;SDS011;64561;44.018;10.144;2023-02-26T08:49:53;3.78;;;2.30;;
75885;SDS011;64561;44.018;10.144;2023-02-26T08:52:20;5.80;;;2.63;;
75885;SDS011;64561;44.018;10.144;2023-02-26T08:54:47;3.45;;;2.03;;
75885;SDS011;64561;44.018;10.144;2023-02-26T08:57:17;3.30;;;2.53;;
75885;SDS011;64561;44.018;10.144;2023-02-26T08:59:44;8.88;;;5.35;;
75885;SDS011;64561;44.018;10.144;2023-02-26T09:02:11;2.35;;;1.60;;
75885;SDS011;64561;44.018;10.144;2023-02-26T09:04:38;4.32;;;1.90;;
75885;SDS011;64561;44.018;10.144;2023-02-26T09:07:05;3.50;;;1.95;;
75885;SDS011;64561;44.018;10.144;2023-02-26T09:09:32;2.88;;;1.58;;
75885;SDS011;64561;44.018;10.144;2023-02-26T09:11:59;14.57;;;9.85;;
75885;SDS011;64561;44.018;10.144;2023-02-26T09:14:26;6.25;;;5.05;;
75885;SDS011;64561;44.018;10.144;2023-02-26T09:16:52;6.57;;;4.57;;
75885;SDS011;64561;44.018;10.144;2023-02-26T09:19:19;7.53;;;4.38;;
75885;SDS011;64561;44.018;10.144;2023-02-26T09:21:46;3.50;;;2.40;;
75885;SDS011;64561;44.018;10.144;2023-02-26T09:24:13;4.68;;;2.35;;
75885;SDS011;64561;44.018;10.144;2023-02-26T09:26:40;2.25;;;1.77;;
75885;SDS011;64561;44.018;10.144;2023-02-26T09:29:07;5.20;;;2.55;;
75885;SDS011;64561;44.018;10.144;2023-02-26T09:31:37;2.90;;;2.03;;
75885;SDS011;64561;44.018;10.144;2023-02-26T09:34:06;2.63;;;1.52;;
75885;SDS011;64561;44.018;10.144;2023-02-26T09:36:37;2.30;;;1.80;;
75885;SDS011;64561;44.018;10.144;2023-02-26T09:39:04;3.55;;;1.58;;
75885;SDS011;64561;44.018;10.144;2023-02-26T09:41:33;5.45;;;1.80;;
75885;SDS011;64561;44.018;10.144;2023-02-26T09:52:30;5.72;;;2.78;;
75885;SDS011;64561;44.018;10.144;2023-02-26T09:54:59;5.95;;;3.53;;
75885;SDS011;64561;44.018;10.144;2023-02-26T09:57:34;4.50;;;3.20;;
75885;SDS011;64561;44.018;10.144;2023-02-26T10:00:15;5.22;;;2.78;;
75885;SDS011;64561;44.018;10.144;2023-02-26T10:09:02;2.83;;;1.40;;
75885;SDS011;64561;44.018;10.144;2023-02-26T10:14:29;3.13;;;2.10;;
75885;SDS011;64561;44.018;10.144;2023-02-26T10:17:00;38.17;;;22.95;;
75885;SDS011;64561;44.018;10.144;2023-02-26T10:19:36;58.00;;;33.33;;
75885;SDS011;64561;44.018;10.144;2023-02-26T10:25:14;4.43;;;3.22;;
75885;SDS011;64561;44.018;10.144;2023-02-26T10:30:41;5.95;;;3.70;;
75885;SDS011;64561;44.018;10.144;2023-02-26T10:33:43;3.22;;;1.73;;
75885;SDS011;64561;44.018;10.144;2023-02-26T10:36:18;0.95;;;0.80;;
75885;SDS011;64561;44.018;10.144;2023-02-26T10:38:51;1.80;;;1.25;;
75885;SDS011;64561;44.018;10.144;2023-02-26T10:41:25;6.90;;;5.57;;
75885;SDS011;64561;44.018;10.144;2023-02-26T10:44:05;8.75;;;7.32;;
75885;SDS011;64561;44.018;10.144;2023-02-26T10:46:51;6.40;;;4.80;;
75885;SDS011;64561;44.018;10.144;2023-02-26T10:52:26;2.67;;;1.58;;
75885;SDS011;64561;44.018;10.144;2023-02-26T10:57:47;0.85;;;0.50;;
75885;SDS011;64561;44.018;10.144;2023-02-26T11:00:20;2.30;;;0.80;;
75885;SDS011;64561;44.018;10.144;2023-02-26T11:02:48;1.25;;;0.93;;
75885;SDS011;64561;44.018;10.144;2023-02-26T11:05:24;1.58;;;1.00;;
75885;SDS011;64561;44.018;10.144;2023-02-26T11:07:55;3.15;;;1.50;;
75885;SDS011;64561;44.018;10.144;2023-02-26T11:10:26;5.25;;;2.13;;
75885;SDS011;64561;44.018;10.144;2023-02-26T11:13:02;2.60;;;2.15;;
75885;SDS011;64561;44.018;10.144;2023-02-26T11:15:30;4.47;;;3.45;;
75885;SDS011;64561;44.018;10.144;2023-02-26T11:17:58;6.25;;;4.50;;
75885;SDS011;64561;44.018;10.144;2023-02-26T11:23:01;9.07;;;4.22;;
75885;SDS011;64561;44.018;10.144;2023-02-26T11:25:30;5.50;;;4.03;;
75885;SDS011;64561;44.018;10.144;2023-02-26T11:28:44;6.47;;;4.25;;
75885;SDS011;64561;44.018;10.144;2023-02-26T11:30:59;10.13;;;4.55;;
75885;SDS011;64561;44.018;10.144;2023-02-26T11:33:33;4.95;;;3.30;;
75885;SDS011;64561;44.018;10.144;2023-02-26T11:36:05;4.15;;;2.83;;
75885;SDS011;64561;44.018;10.144;2023-02-26T11:38:36;4.93;;;3.00;;
75885;SDS011;64561;44.018;10.144;2023-02-26T11:41:03;5.57;;;3.35;;
75885;SDS011;64561;44.018;10.144;2023-02-26T11:43:55;4.82;;;3.58;;
75885;SDS011;64561;44.018;10.144;2023-02-26T11:46:25;7.03;;;4.65;;
75885;SDS011;64561;44.018;10.144;2023-02-26T11:48:54;7.78;;;4.97;;
75885;SDS011;64561;44.018;10.144;2023-02-26T11:51:24;5.95;;;3.60;;
75885;SDS011;64561;44.018;10.144;2023-02-26T11:54:02;4.03;;;2.53;;
75885;SDS011;64561;44.018;10.144;2023-02-26T11:56:37;4.55;;;2.65;;
75885;SDS011;64561;44.018;10.144;2023-02-26T11:59:17;6.13;;;2.35;;
75885;SDS011;64561;44.018;10.144;2023-02-26T12:01:47;4.15;;;2.90;;
75885;SDS011;64561;44.018;10.144;2023-02-26T12:04:19;3.83;;;2.60;;
75885;SDS011;64561;44.018;10.144;2023-02-26T12:06:48;3.13;;;1.95;;
75885;SDS011;64561;44.018;10.144;2023-02-26T12:09:17;4.82;;;2.38;;
75885;SDS011;64561;44.018;10.144;2023-02-26T12:17:30;4.22;;;2.40;;
75885;SDS011;64561;44.018;10.144;2023-02-26T12:43:15;5.65;;;3.95;;
75885;SDS011;64561;44.018;10.144;2023-02-26T12:51:24;7.93;;;6.63;;
75885;SDS011;64561;44.018;10.144;2023-02-26T13:05:22;7.30;;;4.70;;
75885;SDS011;64561;44.018;10.144;2023-02-26T13:11:06;6.03;;;3.38;;
75885;SDS011;64561;44.018;10.144;2023-02-26T13:22:19;4.35;;;2.13;;
75885;SDS011;64561;44.018;10.144;2023-02-26T13:25:03;4.18;;;1.92;;
75885;SDS011;64561;44.018;10.144;2023-02-26T13:27:42;5.20;;;2.72;;
75885;SDS011;64561;44.018;10.144;2023-02-26T13:30:26;4.95;;;2.25;;
75885;SDS011;64561;44.018;10.144;2023-02-26T13:32:59;1.73;;;1.15;;
75885;SDS011;64561;44.018;10.144;2023-02-26T13:35:35;4.47;;;2.85;;
75885;SDS011;64561;44.018;10.144;2023-02-26T13:38:10;1.58;;;1.25;;
75885;SDS011;64561;44.018;10.144;2023-02-26T13:41:04;2.75;;;1.15;;
75885;SDS011;64561;44.018;10.144;2023-02-26T13:43:49;3.70;;;2.10;;
75885;SDS011;64561;44.018;10.144;2023-02-26T13:52:55;7.35;;;4.72;;
75885;SDS011;64561;44.018;10.144;2023-02-26T13:55:35;5.25;;;3.47;;
75885;SDS011;64561;44.018;10.144;2023-02-26T14:01:06;3.83;;;2.33;;
75885;SDS011;64561;44.018;10.144;2023-02-26T14:04:32;6.32;;;4.28;;
75885;SDS011;64561;44.018;10.144;2023-02-26T14:06:58;8.98;;;4.72;;
75885;SDS011;64561;44.018;10.144;2023-02-26T14:13:02;6.68;;;4.90;;
75885;SDS011;64561;44.018;10.144;2023-02-26T14:15:40;4.20;;;2.33;;
75885;SDS011;64561;44.018;10.144;2023-02-26T14:18:24;6.93;;;4.20;;
75885;SDS011;64561;44.018;10.144;2023-02-26T14:21:09;6.40;;;3.13;;
75885;SDS011;64561;44.018;10.144;2023-02-26T14:23:56;2.42;;;1.25;;
75885;SDS011;64561;44.018;10.144;2023-02-26T14:26:27;2.80;;;1.98;;
75885;SDS011;64561;44.018;10.144;2023-02-26T14:34:21;2.78;;;1.33;;
75885;SDS011;64561;44.018;10.144;2023-02-26T14:36:55;1.90;;;1.30;;
75885;SDS011;64561;44.018;10.144;2023-02-26T14:39:47;3.53;;;2.58;;
75885;SDS011;64561;44.018;10.144;2023-02-26T14:42:27;3.75;;;2.08;;
75885;SDS011;64561;44.018;10.144;2023-02-26T14:45:30;2.65;;;1.95;;
75885;SDS011;64561;44.018;10.144;2023-02-26T14:48:03;2.50;;;1.38;;
75885;SDS011;64561;44.018;10.144;2023-02-26T14:50:49;1.70;;;0.93;;
75885;SDS011;64561;44.018;10.144;2023-02-26T14:56:23;4.60;;;2.70;;
75885;SDS011;64561;44.018;10.144;2023-02-26T14:59:09;4.82;;;2.75;;
75885;SDS011;64561;44.018;10.144;2023-02-26T15:01:47;4.25;;;1.70;;
75885;SDS011;64561;44.018;10.144;2023-02-26T15:12:35;2.35;;;1.27;;
75885;SDS011;64561;44.018;10.144;2023-02-26T15:18:16;8.02;;;3.75;;
75885;SDS011;64561;44.018;10.144;2023-02-26T15:26:30;5.90;;;2.90;;
75885;SDS011;64561;44.018;10.144;2023-02-26T15:29:04;6.55;;;4.00;;
75885;SDS011;64561;44.018;10.144;2023-02-26T15:31:35;66.45;;;37.45;;
75885;SDS011;64561;44.018;10.144;2023-02-26T15:34:10;66.90;;;42.88;;
75885;SDS011;64561;44.018;10.144;2023-02-26T15:36:39;31.60;;;19.95;;
75885;SDS011;64561;44.018;10.144;2023-02-26T15:39:11;13.85;;;7.47;;
75885;SDS011;64561;44.018;10.144;2023-02-26T15:41:41;8.63;;;5.95;;
75885;SDS011;64561;44.018;10.144;2023-02-26T15:44:12;14.82;;;11.98;;
75885;SDS011;64561;44.018;10.144;2023-02-26T15:46:44;10.57;;;6.38;;
75885;SDS011;64561;44.018;10.144;2023-02-26T15:49:24;8.65;;;5.97;;
75885;SDS011;64561;44.018;10.144;2023-02-26T15:51:57;9.48;;;6.85;;
75885;SDS011;64561;44.018;10.144;2023-02-26T15:54:29;10.05;;;6.38;;
75885;SDS011;64561;44.018;10.144;2023-02-26T15:57:05;8.48;;;5.60;;
75885;SDS011;64561;44.018;10.144;2023-02-26T15:59:41;10.43;;;6.82;;
75885;SDS011;64561;44.018;10.144;2023-02-26T16:02:14;9.98;;;7.07;;
75885;SDS011;64561;44.018;10.144;2023-02-26T16:04:44;7.43;;;5.55;;
75885;SDS011;64561;44.018;10.144;2023-02-26T16:07:12;10.40;;;8.75;;
75885;SDS011;64561;44.018;10.144;2023-02-26T16:09:43;11.45;;;6.95;;
75885;SDS011;64561;44.018;10.144;2023-02-26T16:12:23;8.18;;;5.78;;
75885;SDS011;64561;44.018;10.144;2023-02-26T16:15:02;7.68;;;4.43;;
75885;SDS011;64561;44.018;10.144;2023-02-26T16:17:33;10.73;;;9.40;;
75885;SDS011;64561;44.018;10.144;2023-02-26T16:20:05;8.10;;;6.20;;
75885;SDS011;64561;44.018;10.144;2023-02-26T16:22:50;12.50;;;8.40;;
75885;SDS011;64561;44.018;10.144;2023-02-26T16:28:14;9.35;;;6.07;;
75885;SDS011;64561;44.018;10.144;2023-02-26T16:30:47;10.98;;;7.57;;
75885;SDS011;64561;44.018;10.144;2023-02-26T16:33:20;8.05;;;6.13;;
75885;SDS011;64561;44.018;10.144;2023-02-26T16:38:42;8.30;;;4.95;;
75885;SDS011;64561;44.018;10.144;2023-02-26T16:41:10;9.15;;;6.80;;
75885;SDS011;64561;44.018;10.144;2023-02-26T16:46:13;11.90;;;8.68;;
75885;SDS011;64561;44.018;10.144;2023-02-26T16:52:01;37.17;;;25.67;;
75885;SDS011;64561;44.018;10.144;2023-02-26T16:57:02;25.50;;;18.60;;
75885;SDS011;64561;44.018;10.144;2023-02-26T16:59:31;18.17;;;12.77;;
75885;SDS011;64561;44.018;10.144;2023-02-26T17:02:02;17.40;;;11.90;;
75885;SDS011;64561;44.018;10.144;2023-02-26T17:04:36;12.48;;;8.82;;
75885;SDS011;64561;44.018;10.144;2023-02-26T17:07:06;11.48;;;8.60;;
75885;SDS011;64561;44.018;10.144;2023-02-26T17:09:46;15.10;;;11.73;;
75885;SDS011;64561;44.018;10.144;2023-02-26T17:12:21;26.73;;;19.30;;
75885;SDS011;64561;44.018;10.144;2023-02-26T17:14:55;22.20;;;14.85;;
75885;SDS011;64561;44.018;10.144;2023-02-26T17:17:25;19.02;;;13.20;;
75885;SDS011;64561;44.018;10.144;2023-02-26T17:19:53;18.48;;;13.60;;
75885;SDS011;64561;44.018;10.144;2023-02-26T17:22:24;14.13;;;9.93;;
75885;SDS011;64561;44.018;10.144;2023-02-26T17:24:54;6.07;;;4.43;;
75885;SDS011;64561;44.018;10.144;2023-02-26T17:27:24;7.57;;;3.92;;
75885;SDS011;64561;44.018;10.144;2023-02-26T17:30:00;11.40;;;6.53;;
75885;SDS011;64561;44.018;10.144;2023-02-26T17:34:59;5.97;;;2.70;;
75885;SDS011;64561;44.018;10.144;2023-02-26T17:37:30;3.60;;;2.30;;
75885;SDS011;64561;44.018;10.144;2023-02-26T17:39:59;8.05;;;4.70;;
75885;SDS011;64561;44.018;10.144;2023-02-26T17:42:26;8.73;;;5.32;;
75885;SDS011;64561;44.018;10.144;2023-02-26T17:44:54;15.38;;;10.13;;
75885;SDS011;64561;44.018;10.144;2023-02-26T17:47:23;11.15;;;8.07;;
75885;SDS011;64561;44.018;10.144;2023-02-26T17:49:52;10.75;;;7.50;;
75885;SDS011;64561;44.018;10.144;2023-02-26T17:52:25;9.68;;;4.18;;
75885;SDS011;64561;44.018;10.144;2023-02-26T17:54:52;6.88;;;3.78;;
75885;SDS011;64561;44.018;10.144;2023-02-26T17:57:20;4.97;;;2.38;;
75885;SDS011;64561;44.018;10.144;2023-02-26T17:59:55;2.55;;;1.50;;
75885;SDS011;64561;44.018;10.144;2023-02-26T18:02:23;3.55;;;1.98;;
75885;SDS011;64561;44.018;10.144;2023-02-26T18:04:53;4.32;;;2.38;;
75885;SDS011;64561;44.018;10.144;2023-02-26T18:07:20;7.93;;;5.20;;
75885;SDS011;64561;44.018;10.144;2023-02-26T18:09:50;8.85;;;6.15;;
75885;SDS011;64561;44.018;10.144;2023-02-26T18:12:20;11.45;;;7.70;;
75885;SDS011;64561;44.018;10.144;2023-02-26T18:14:49;10.70;;;7.00;;
75885;SDS011;64561;44.018;10.144;2023-02-26T18:17:26;16.85;;;9.52;;
75885;SDS011;64561;44.018;10.144;2023-02-26T18:19:58;11.93;;;7.55;;
75885;SDS011;64561;44.018;10.144;2023-02-26T18:22:25;6.35;;;4.65;;
75885;SDS011;64561;44.018;10.144;2023-02-26T18:24:53;3.83;;;2.15;;
75885;SDS011;64561;44.018;10.144;2023-02-26T18:27:24;11.73;;;6.78;;
75885;SDS011;64561;44.018;10.144;2023-02-26T18:29:52;8.68;;;5.47;;